Time;durP1;ratioP1;P1;durP2;ratioP2;P2;SDS_P1;SDS_P2;PMS_P1;PMS_P2;Temp;Humidity;BMP_temperature;BMP_pressure;BME280_temperature;BME280_humidity;BME280_pressure;Samples;Min_cycle;Max_cycle;Signal;HPM_P1;HPM_P2
2022/08/30 00:01:01;;;;;;;5.97;3.33;;;17.00;99.90;;;;;;5030041;28;20029;-76
2022/08/30 00:03:29;;;;;;;3.95;2.85;;;17.00;99.90;;;;;;5030026;28;20029;-75
2022/08/30 00:05:55;;;;;;;5.78;3.17;;;17.00;99.90;;;;;;5030078;28;20466;-75
2022/08/30 00:08:20;;;;;;;3.40;2.90;;;17.00;99.90;;;;;;5029520;28;20445;-75
2022/08/30 00:10:49;;;;;;;4.90;3.28;;;17.00;99.90;;;;;;5030253;28;20021;-75
2022/08/30 00:13:16;;;;;;;6.85;3.15;;;16.90;99.90;;;;;;5029652;28;20025;-76
2022/08/30 00:15:42;;;;;;;5.70;3.00;;;16.90;99.90;;;;;;5030224;28;20025;-76
2022/08/30 00:18:09;;;;;;;13.40;4.20;;;16.80;99.90;;;;;;5029680;28;20087;-75
2022/08/30 00:20:36;;;;;;;6.82;3.85;;;16.80;99.90;;;;;;5029990;28;20040;-75
2022/08/30 00:23:03;;;;;;;5.05;3.08;;;16.80;99.90;;;;;;5029368;28;20062;-76
2022/08/30 00:25:29;;;;;;;3.75;3.05;;;16.90;99.90;;;;;;5029820;28;20025;-75
2022/08/30 00:27:54;;;;;;;4.50;3.28;;;16.80;99.90;;;;;;5029942;28;20045;-76
2022/08/30 00:30:20;;;;;;;4.80;3.80;;;16.90;99.90;;;;;;5029598;28;20164;-75
2022/08/30 00:32:46;;;;;;;3.90;3.50;;;16.90;99.90;;;;;;5029976;28;20044;-76
2022/08/30 00:35:14;;;;;;;7.70;4.80;;;16.80;99.90;;;;;;5029256;28;20025;-76
2022/08/30 00:37:39;;;;;;;5.70;4.00;;;16.80;99.90;;;;;;5029463;28;20035;-75
2022/08/30 00:40:08;;;;;;;11.88;5.57;;;16.80;99.90;;;;;;5029680;28;20394;-75
2022/08/30 00:42:34;;;;;;;6.53;5.18;;;16.80;99.90;;;;;;5029745;28;20499;-75
2022/08/30 00:45:07;;;;;;;8.73;4.82;;;16.80;99.90;;;;;;5029432;28;20478;-75
2022/08/30 00:47:32;;;;;;;6.07;5.18;;;16.90;99.90;;;;;;5029422;28;20113;-75
2022/08/30 00:49:59;;;;;;;7.28;5.43;;;16.90;99.90;;;;;;5029786;28;20144;-76
2022/08/30 00:52:24;;;;;;;7.00;6.05;;;16.70;99.90;;;;;;5028999;28;20533;-75
2022/08/30 00:54:51;;;;;;;6.15;5.22;;;16.70;99.90;;;;;;5028666;28;20113;-75
2022/08/30 00:57:17;;;;;;;10.20;6.50;;;16.70;99.90;;;;;;5029100;28;20021;-75
2022/08/30 00:59:46;;;;;;;6.10;5.50;;;17.70;99.90;;;;;;5029776;28;20071;-75
2022/08/30 01:02:12;;;;;;;9.57;5.25;;;16.70;99.90;;;;;;5029132;28;20055;-75
2022/08/30 01:04:41;;;;;;;6.85;5.97;;;16.60;99.90;;;;;;5029850;28;20041;-75
2022/08/30 01:07:07;;;;;;;6.43;5.82;;;16.60;99.90;;;;;;5029085;28;20033;-75
2022/08/30 01:09:36;;;;;;;8.15;6.00;;;16.70;99.90;;;;;;5029307;28;20386;-75
2022/08/30 01:12:03;;;;;;;11.38;6.57;;;16.60;99.90;;;;;;5029188;28;20025;-76
2022/08/30 01:14:32;;;;;;;6.63;5.90;;;16.50;99.90;;;;;;5030374;28;20053;-75
2022/08/30 01:17:00;;;;;;;7.53;6.82;;;16.60;99.90;;;;;;5033427;28;20097;-76
2022/08/30 01:19:32;;;;;;;6.90;6.15;;;16.60;99.90;;;;;;5033145;28;20029;-76
2022/08/30 01:22:21;;;;;;;7.47;5.90;;;16.70;99.90;;;;;;5027407;28;20196;-75
2022/08/30 01:24:49;;;;;;;8.43;6.45;;;16.50;99.90;;;;;;5032694;28;20683;-76
2022/08/30 01:27:17;;;;;;;7.50;6.18;;;16.40;99.90;;;;;;5032640;28;20055;-75
2022/08/30 01:29:43;;;;;;;7.15;6.22;;;16.40;99.90;;;;;;5033247;28;20041;-75
2022/08/30 01:32:19;;;;;;;7.68;6.78;;;16.50;99.90;;;;;;5032477;28;20374;-75
2022/08/30 01:34:48;;;;;;;8.50;6.55;;;16.30;99.90;;;;;;5032498;28;20367;-74
2022/08/30 01:37:16;;;;;;;6.82;6.20;;;16.30;99.90;;;;;;5032178;28;20033;-75
2022/08/30 01:39:45;;;;;;;6.60;5.80;;;16.40;99.90;;;;;;5032778;28;20072;-75
2022/08/30 01:42:11;;;;;;;7.80;6.45;;;16.40;99.90;;;;;;5032412;28;20101;-75
2022/08/30 01:44:37;;;;;;;7.28;6.57;;;16.30;99.90;;;;;;5033048;28;20029;-75
2022/08/30 01:47:02;;;;;;;7.22;5.70;;;16.10;99.90;;;;;;5032563;28;20415;-75
2022/08/30 01:49:28;;;;;;;6.88;5.95;;;16.40;99.90;;;;;;5032003;28;20033;-75
2022/08/30 01:51:54;;;;;;;5.85;5.35;;;16.30;99.90;;;;;;5032733;28;20017;-74
2022/08/30 01:54:20;;;;;;;9.30;6.68;;;16.30;99.90;;;;;;5032041;28;20095;-75
2022/08/30 01:56:45;;;;;;;6.70;6.00;;;16.30;99.90;;;;;;5033220;28;20029;-74
2022/08/30 01:59:11;;;;;;;7.07;6.40;;;16.20;99.90;;;;;;5032999;28;20029;-75
2022/08/30 02:01:38;;;;;;;7.57;6.88;;;16.20;99.90;;;;;;5032742;28;20036;-75
2022/08/30 02:04:05;;;;;;;8.27;6.97;;;16.80;99.90;;;;;;5031837;28;20026;-75
2022/08/30 02:06:31;;;;;;;9.52;8.68;;;16.20;99.90;;;;;;5030658;28;20029;-75
2022/08/30 02:08:58;;;;;;;7.72;6.85;;;17.30;99.90;;;;;;5032625;28;20041;-74
2022/08/30 02:11:24;;;;;;;7.55;6.85;;;16.20;99.90;;;;;;5032628;28;20087;-75
2022/08/30 02:13:49;;;;;;;8.35;6.85;;;16.10;99.90;;;;;;5033468;28;20029;-74
2022/08/30 02:16:18;;;;;;;8.02;6.90;;;16.10;99.90;;;;;;5031711;28;20030;-75
2022/08/30 02:18:44;;;;;;;8.32;7.53;;;16.10;99.90;;;;;;5031537;28;20033;-75
2022/08/30 02:21:11;;;;;;;6.85;6.18;;;16.90;99.90;;;;;;5031658;28;20025;-74
2022/08/30 02:23:37;;;;;;;7.68;7.05;;;16.00;99.90;;;;;;5032545;28;20060;-73
2022/08/30 02:26:03;;;;;;;6.60;6.03;;;16.10;99.90;;;;;;5031401;28;20427;-73
2022/08/30 02:28:29;;;;;;;7.70;7.03;;;16.10;99.90;;;;;;5032112;28;20056;-75
2022/08/30 02:30:54;;;;;;;7.97;7.28;;;16.00;99.90;;;;;;5030849;28;20029;-75
2022/08/30 02:33:20;;;;;;;7.72;7.03;;;16.00;99.90;;;;;;5031073;28;20036;-74
2022/08/30 02:35:46;;;;;;;9.70;7.40;;;16.00;99.90;;;;;;5031902;28;20032;-75
2022/08/30 02:38:11;;;;;;;9.10;8.23;;;16.00;99.90;;;;;;5031624;28;20072;-74
2022/08/30 02:40:37;;;;;;;10.13;8.82;;;16.10;99.90;;;;;;5032052;28;20044;-75
2022/08/30 02:43:02;;;;;;;16.45;8.85;;;16.00;99.90;;;;;;5032021;28;20493;-74
2022/08/30 02:45:28;;;;;;;9.45;7.13;;;15.90;99.90;;;;;;5031993;28;20351;-74
2022/08/30 02:47:55;;;;;;;10.50;9.43;;;16.00;99.90;;;;;;5031706;28;20033;-74
2022/08/30 02:50:21;;;;;;;8.43;7.68;;;15.90;99.90;;;;;;5031214;28;20025;-74
2022/08/30 02:52:47;;;;;;;9.18;8.13;;;16.20;99.90;;;;;;5031517;28;20351;-75
2022/08/30 02:55:12;;;;;;;8.60;7.80;;;16.00;99.90;;;;;;5031265;28;20028;-76
2022/08/30 02:57:38;;;;;;;9.43;7.93;;;15.80;99.90;;;;;;5031536;28;20028;-75
2022/08/30 03:00:08;;;;;;;9.25;8.30;;;15.80;99.90;;;;;;5031488;28;20024;-75
2022/08/30 03:02:34;;;;;;;9.98;9.00;;;15.80;99.90;;;;;;5029292;28;20025;-75
2022/08/30 03:05:00;;;;;;;9.65;8.75;;;15.80;99.90;;;;;;5031431;28;20378;-75
2022/08/30 03:07:26;;;;;;;10.88;8.70;;;15.90;99.90;;;;;;5030953;28;20029;-75
2022/08/30 03:09:51;;;;;;;10.07;9.05;;;15.80;99.90;;;;;;5031324;28;20071;-75
2022/08/30 03:12:17;;;;;;;11.80;9.48;;;15.70;99.90;;;;;;5030916;28;20425;-75
2022/08/30 03:14:43;;;;;;;9.88;8.23;;;15.70;99.90;;;;;;5031100;28;20482;-75
2022/08/30 03:17:08;;;;;;;10.88;9.73;;;15.70;99.90;;;;;;5030746;28;20060;-75
2022/08/30 03:19:35;;;;;;;11.80;9.43;;;15.70;99.90;;;;;;5030794;28;20034;-75
2022/08/30 03:22:02;;;;;;;10.85;9.77;;;15.70;99.90;;;;;;5030961;28;20029;-75
2022/08/30 03:24:28;;;;;;;9.55;8.60;;;16.40;99.90;;;;;;5030661;28;20029;-75
2022/08/30 03:26:54;;;;;;;10.57;9.57;;;15.70;99.90;;;;;;5030600;28;20037;-74
2022/08/30 03:29:19;;;;;;;14.48;10.15;;;15.60;99.90;;;;;;5030675;28;20037;-75
2022/08/30 03:31:46;;;;;;;12.23;10.23;;;15.70;99.90;;;;;;5028923;28;20383;-75
2022/08/30 03:34:11;;;;;;;13.73;9.90;;;15.60;99.90;;;;;;5030212;28;20046;-75
2022/08/30 03:36:38;;;;;;;10.95;9.85;;;16.40;99.90;;;;;;5030418;28;20070;-75
2022/08/30 03:39:05;;;;;;;11.77;9.77;;;15.50;99.90;;;;;;5030344;28;20060;-75
2022/08/30 03:41:31;;;;;;;10.05;9.15;;;15.50;99.90;;;;;;5030432;28;20098;-75
2022/08/30 03:43:58;;;;;;;12.52;10.70;;;15.50;99.90;;;;;;5030662;28;20044;-75
2022/08/30 03:46:23;;;;;;;13.20;10.00;;;15.50;99.90;;;;;;5030011;28;20043;-75
2022/08/30 03:48:50;;;;;;;15.82;11.75;;;15.50;99.90;;;;;;5030321;28;20037;-74
2022/08/30 03:51:16;;;;;;;12.52;11.15;;;15.50;99.90;;;;;;5030282;28;20025;-75
2022/08/30 03:53:42;;;;;;;11.70;10.40;;;17.80;99.90;;;;;;5030460;28;20386;-75
2022/08/30 03:56:08;;;;;;;13.05;11.88;;;15.30;99.90;;;;;;5030424;28;20383;-75
2022/08/30 03:58:34;;;;;;;14.32;12.68;;;15.30;99.90;;;;;;5030117;28;20034;-75
2022/08/30 04:00:59;;;;;;;12.98;11.65;;;15.40;99.90;;;;;;5029661;28;20092;-75
2022/08/30 04:03:25;;;;;;;10.90;9.98;;;15.40;99.90;;;;;;5030155;28;20111;-75
2022/08/30 04:05:52;;;;;;;13.88;11.52;;;15.30;99.90;;;;;;5030266;28;20021;-75
2022/08/30 04:08:19;;;;;;;9.50;8.60;;;15.50;99.90;;;;;;5029911;28;20036;-75
2022/08/30 04:10:46;;;;;;;11.82;10.63;;;15.40;99.90;;;;;;5030141;28;20021;-75
2022/08/30 04:13:12;;;;;;;10.93;9.88;;;15.40;99.90;;;;;;5029455;28;20099;-75
2022/08/30 04:15:38;;;;;;;11.90;10.82;;;15.30;99.90;;;;;;5029575;28;20028;-75
2022/08/30 04:18:03;;;;;;;11.30;10.20;;;15.40;99.90;;;;;;5029578;28;20029;-75
2022/08/30 04:20:29;;;;;;;10.88;9.82;;;15.30;99.90;;;;;;5028781;28;20525;-75
2022/08/30 04:22:54;;;;;;;10.07;9.10;;;15.20;99.90;;;;;;5030107;28;20033;-75
2022/08/30 04:25:20;;;;;;;10.02;9.15;;;15.20;99.90;;;;;;5029441;28;20021;-75
2022/08/30 04:27:46;;;;;;;10.68;9.73;;;15.30;99.90;;;;;;5029899;28;20053;-75
2022/08/30 04:30:13;;;;;;;10.93;9.85;;;15.20;99.90;;;;;;5028967;28;20033;-75
2022/08/30 04:32:39;;;;;;;10.38;9.38;;;15.20;99.90;;;;;;5030031;28;20033;-74
2022/08/30 04:35:05;;;;;;;10.13;8.50;;;15.30;99.90;;;;;;5029792;28;20021;-74
2022/08/30 04:37:30;;;;;;;9.88;8.95;;;15.20;99.90;;;;;;5029745;28;20048;-74
2022/08/30 04:39:59;;;;;;;10.40;9.50;;;15.20;99.90;;;;;;5030215;28;20482;-75
2022/08/30 04:42:26;;;;;;;9.25;8.27;;;15.10;99.90;;;;;;5029444;28;20382;-75
2022/08/30 04:44:52;;;;;;;9.27;8.38;;;15.20;99.90;;;;;;5030581;28;20053;-75
2022/08/30 04:47:18;;;;;;;7.40;6.70;;;15.30;99.90;;;;;;5030447;28;20431;-74
2022/08/30 04:49:46;;;;;;;6.68;5.97;;;15.90;99.90;;;;;;5032072;28;20394;-74
2022/08/30 04:52:12;;;;;;;8.27;7.53;;;15.80;99.90;;;;;;5033183;28;20111;-75
2022/08/30 04:54:38;;;;;;;8.60;7.80;;;15.80;99.90;;;;;;5033993;28;20486;-75
2022/08/30 04:57:05;;;;;;;8.43;6.93;;;15.20;99.90;;;;;;5033479;28;20025;-75
2022/08/30 04:59:30;;;;;;;7.55;6.65;;;15.30;99.90;;;;;;5019589;28;20067;-75
2022/08/30 05:01:56;;;;;;;9.32;7.05;;;15.80;99.90;;;;;;5033864;28;20029;-75
2022/08/30 05:04:21;;;;;;;7.15;6.43;;;15.20;99.90;;;;;;5031761;28;20387;-75
2022/08/30 05:06:48;;;;;;;6.95;5.97;;;15.20;99.90;;;;;;5033920;28;20063;-74
2022/08/30 05:09:13;;;;;;;9.13;7.10;;;15.30;99.90;;;;;;5033052;28;20029;-74
2022/08/30 05:11:39;;;;;;;7.65;6.07;;;15.30;99.90;;;;;;5031937;28;20014;-75
2022/08/30 05:14:04;;;;;;;5.85;5.20;;;15.40;99.90;;;;;;5032534;28;20503;-75
2022/08/30 05:16:30;;;;;;;8.73;5.57;;;15.30;99.90;;;;;;5019293;28;20053;-75
2022/08/30 05:18:56;;;;;;;7.65;4.65;;;15.40;99.90;;;;;;5033559;28;20029;-75
2022/08/30 05:21:25;;;;;;;7.80;4.50;;;15.50;99.90;;;;;;5032822;28;20036;-75
2022/08/30 05:23:53;;;;;;;4.65;4.07;;;15.70;99.90;;;;;;5033366;28;20017;-75
2022/08/30 05:26:22;;;;;;;5.28;3.97;;;15.50;99.90;;;;;;5032392;28;20017;-74
2022/08/30 05:28:48;;;;;;;4.60;4.03;;;15.60;99.90;;;;;;5033173;28;20037;-75
2022/08/30 05:31:15;;;;;;;6.20;3.20;;;16.70;99.90;;;;;;5032957;28;20022;-75
2022/08/30 05:33:41;;;;;;;4.25;3.22;;;15.60;99.90;;;;;;5033051;28;20028;-75
2022/08/30 05:36:08;;;;;;;7.97;4.22;;;16.30;99.90;;;;;;5032999;28;20022;-75
2022/08/30 05:38:34;;;;;;;7.38;4.60;;;15.90;99.90;;;;;;5031272;28;20022;-75
2022/08/30 05:40:59;;;;;;;3.90;3.50;;;15.80;99.90;;;;;;5032754;28;20022;-75
2022/08/30 05:43:25;;;;;;;4.55;3.40;;;15.90;99.90;;;;;;5032707;28;20025;-75
2022/08/30 05:46:01;;;;;;;4.40;2.97;;;15.90;99.90;;;;;;5032962;28;20096;-75
2022/08/30 05:48:27;;;;;;;6.93;3.80;;;16.10;99.90;;;;;;5032328;28;20029;-75
2022/08/30 05:51:10;;;;;;;4.43;4.03;;;16.00;99.90;;;;;;5030216;28;20028;-75
2022/08/30 05:53:36;;;;;;;4.57;3.65;;;16.10;99.90;;;;;;5025810;28;20021;-75
2022/08/30 05:56:04;;;;;;;4.32;3.92;;;16.10;99.90;;;;;;5031939;28;20369;-75
2022/08/30 05:58:29;;;;;;;7.80;4.30;;;16.20;99.90;;;;;;5031893;28;20554;-75
2022/08/30 06:00:55;;;;;;;4.53;3.55;;;16.00;99.90;;;;;;5032095;28;20029;-75
2022/08/30 06:03:21;;;;;;;5.00;3.92;;;17.80;99.90;;;;;;5032271;28;20034;-76
2022/08/30 06:05:46;;;;;;;4.20;3.42;;;16.30;99.90;;;;;;5032709;28;20139;-74
2022/08/30 06:08:12;;;;;;;5.55;3.20;;;16.30;99.90;;;;;;5032818;28;20437;-75
2022/08/30 06:10:37;;;;;;;4.10;3.45;;;16.30;99.90;;;;;;5032752;28;20383;-74
2022/08/30 06:13:03;;;;;;;3.72;2.90;;;16.40;99.90;;;;;;5032379;28;20060;-74
2022/08/30 06:15:29;;;;;;;6.63;3.60;;;16.40;99.90;;;;;;5032549;28;20437;-74
2022/08/30 06:17:55;;;;;;;4.22;3.10;;;16.60;99.90;;;;;;5032161;28;20029;-75
2022/08/30 06:20:20;;;;;;;4.85;1.80;;;16.50;99.90;;;;;;5032189;28;20044;-75
2022/08/30 06:22:46;;;;;;;4.25;3.03;;;16.60;99.90;;;;;;5033685;28;20017;-75
2022/08/30 06:25:13;;;;;;;3.28;2.08;;;16.70;99.90;;;;;;5031951;28;20018;-74
2022/08/30 06:27:38;;;;;;;5.15;2.20;;;16.80;99.90;;;;;;5033229;28;20075;-75
2022/08/30 06:30:07;;;;;;;4.22;2.13;;;16.70;99.90;;;;;;5031405;28;20128;-75
2022/08/30 06:32:33;;;;;;;4.63;2.15;;;16.90;99.90;;;;;;5031059;28;20026;-74
2022/08/30 06:34:59;;;;;;;6.20;2.28;;;16.90;99.90;;;;;;5031535;28;20033;-75
2022/08/30 06:37:25;;;;;;;2.88;1.65;;;16.90;99.90;;;;;;5031161;28;20029;-75
2022/08/30 06:39:50;;;;;;;4.93;2.42;;;17.00;99.90;;;;;;5019184;28;20068;-75
2022/08/30 06:42:16;;;;;;;4.22;1.67;;;17.20;99.90;;;;;;5028959;28;20034;-73
2022/08/30 06:44:41;;;;;;;7.32;2.05;;;17.20;99.90;;;;;;5031428;28;20433;-73
2022/08/30 06:47:07;;;;;;;2.92;1.92;;;17.20;99.90;;;;;;5031254;28;20490;-73
2022/08/30 06:49:32;;;;;;;2.92;1.42;;;17.30;99.70;;;;;;5030683;28;20112;-74
2022/08/30 06:51:58;;;;;;;4.95;1.45;;;17.30;99.50;;;;;;5031391;28;20095;-73
2022/08/30 06:54:23;;;;;;;3.17;1.55;;;17.40;99.30;;;;;;5029134;28;20033;-73
2022/08/30 06:56:49;;;;;;;3.10;1.63;;;17.40;99.00;;;;;;5031291;28;20048;-73
2022/08/30 06:59:15;;;;;;;7.35;1.52;;;17.50;98.80;;;;;;5030797;28;20030;-73
2022/08/30 07:01:41;;;;;;;4.70;1.70;;;18.40;99.10;;;;;;5031211;28;20045;-73
2022/08/30 07:04:06;;;;;;;3.80;1.33;;;17.60;98.50;;;;;;5031539;28;20039;-73
2022/08/30 07:06:32;;;;;;;3.53;1.40;;;17.60;98.30;;;;;;5030881;28;20398;-73
2022/08/30 07:08:58;;;;;;;3.95;1.35;;;17.60;98.10;;;;;;5031130;28;20033;-73
2022/08/30 07:11:43;;;;;;;5.28;1.77;;;17.70;97.90;;;;;;5030672;28;20379;-73
2022/08/30 07:14:09;;;;;;;3.67;1.45;;;17.80;97.20;;;;;;5030663;28;20026;-73
2022/08/30 07:16:35;;;;;;;4.43;1.42;;;17.80;97.50;;;;;;5021598;28;20055;-72
2022/08/30 07:19:04;;;;;;;3.20;1.45;;;17.80;97.20;;;;;;5030938;28;20030;-72
2022/08/30 07:21:36;;;;;;;3.38;2.03;;;18.00;97.60;;;;;;5030867;28;20088;-72
2022/08/30 07:24:02;;;;;;;2.65;1.63;;;18.10;97.60;;;;;;5030581;28;20167;-72
2022/08/30 07:26:33;;;;;;;2.00;1.00;;;18.10;97.20;;;;;;5029747;28;20017;-73
2022/08/30 07:28:59;;;;;;;5.05;1.80;;;18.10;97.30;;;;;;5029630;28;20033;-74
2022/08/30 07:31:25;;;;;;;4.22;1.30;;;18.10;97.00;;;;;;5030017;28;20033;-73
2022/08/30 07:33:51;;;;;;;2.70;1.50;;;18.20;96.80;;;;;;5029995;28;20091;-74
2022/08/30 07:36:17;;;;;;;2.03;1.00;;;19.10;97.10;;;;;;5027432;28;20033;-75
2022/08/30 07:38:44;;;;;;;6.68;1.88;;;18.30;96.90;;;;;;5017112;28;20496;-76
2022/08/30 07:41:16;;;;;;;3.42;1.65;;;18.90;96.90;;;;;;5021465;28;20060;-75
2022/08/30 07:43:41;;;;;;;2.15;1.73;;;18.30;96.80;;;;;;5030017;28;20092;-76
2022/08/30 07:46:07;;;;;;;5.25;1.17;;;19.10;96.60;;;;;;5026886;28;20033;-77
2022/08/30 07:48:33;;;;;;;2.88;1.00;;;18.30;96.30;;;;;;5026074;28;20049;-76
2022/08/30 07:50:59;;;;;;;2.25;1.08;;;18.40;96.00;;;;;;5028367;28;20100;-76
2022/08/30 07:53:25;;;;;;;1.60;0.88;;;18.50;95.90;;;;;;5028518;28;20124;-75
2022/08/30 07:55:51;;;;;;;2.80;0.82;;;19.00;95.80;;;;;;5029652;28;20579;-74
2022/08/30 07:58:16;;;;;;;4.05;1.35;;;18.70;95.80;;;;;;5027972;28;20437;-74
2022/08/30 08:00:42;;;;;;;2.42;1.10;;;18.90;95.70;;;;;;5029181;28;20079;-74
2022/08/30 08:03:09;;;;;;;2.92;1.15;;;18.90;95.40;;;;;;5029536;28;20136;-75
2022/08/30 08:05:43;;;;;;;1.45;1.10;;;19.00;95.60;;;;;;5028509;28;20042;-71
2022/08/30 08:08:09;;;;;;;3.45;1.05;;;19.10;95.40;;;;;;5029463;28;20033;-73
2022/08/30 08:10:37;;;;;;;1.58;0.70;;;20.50;95.20;;;;;;5029492;28;20478;-72
2022/08/30 08:13:03;;;;;;;2.58;0.70;;;19.20;94.50;;;;;;5029864;28;20021;-75
2022/08/30 08:15:29;;;;;;;2.55;0.90;;;19.30;94.40;;;;;;5029647;28;20025;-76
2022/08/30 08:17:55;;;;;;;4.18;1.00;;;19.40;93.60;;;;;;5030136;28;20116;-75
2022/08/30 08:20:21;;;;;;;5.30;0.90;;;19.40;94.30;;;;;;5029272;28;20525;-75
2022/08/30 08:22:47;;;;;;;2.85;0.90;;;19.50;94.20;;;;;;5029716;28;20021;-74
2022/08/30 08:25:13;;;;;;;4.53;1.33;;;19.50;93.90;;;;;;5029730;28;20017;-75
2022/08/30 08:27:39;;;;;;;6.70;0.90;;;19.70;93.70;;;;;;5029701;28;20041;-75
2022/08/30 08:30:05;;;;;;;1.92;0.75;;;19.80;93.40;;;;;;5029890;28;20029;-75
2022/08/30 08:32:31;;;;;;;4.07;0.98;;;19.80;93.20;;;;;;5029557;28;20371;-74
2022/08/30 08:34:56;;;;;;;3.83;0.77;;;19.90;93.00;;;;;;5029578;28;20030;-75
2022/08/30 08:37:22;;;;;;;2.67;0.90;;;20.00;92.70;;;;;;5029635;28;20033;-75
2022/08/30 08:39:47;;;;;;;1.77;0.95;;;20.00;92.30;;;;;;5029770;28;20463;-75
2022/08/30 08:42:39;;;;;;;3.22;0.88;;;20.00;91.90;;;;;;5029524;28;20021;-75
2022/08/30 08:45:11;;;;;;;2.13;0.95;;;20.10;91.10;;;;;;5029936;28;20037;-75
2022/08/30 08:47:44;;;;;;;1.55;0.77;;;20.70;91.80;;;;;;5015884;28;20033;-75
2022/08/30 08:50:16;;;;;;;1.73;1.10;;;20.30;91.50;;;;;;5029218;28;20025;-75
2022/08/30 08:55:47;;;;;;;1.15;0.90;;;20.80;91.20;;;;;;5029665;28;20041;-75
2022/08/30 08:58:23;;;;;;;5.90;1.13;;;20.50;90.50;;;;;;5029497;28;20024;-75
2022/08/30 09:00:49;;;;;;;1.38;0.77;;;20.40;89.30;;;;;;5029659;28;20037;-74
2022/08/30 09:03:16;;;;;;;1.85;0.90;;;20.40;90.30;;;;;;5029383;28;20029;-74
2022/08/30 09:05:43;;;;;;;3.10;1.05;;;20.60;90.10;;;;;;5028783;28;20032;-75
2022/08/30 09:08:15;;;;;;;1.85;0.90;;;20.50;90.20;;;;;;5029497;28;20100;-75
2022/08/30 09:10:57;;;;;;;1.60;0.88;;;20.60;90.20;;;;;;5029293;28;20053;-75
2022/08/30 09:13:23;;;;;;;1.90;1.00;;;20.70;88.50;;;;;;5017588;28;20022;-75
2022/08/30 09:15:50;;;;;;;2.15;0.98;;;20.70;89.80;;;;;;5029399;28;20037;-75
2022/08/30 09:18:17;;;;;;;2.47;0.95;;;20.70;89.30;;;;;;5028763;28;20685;-75
2022/08/30 09:20:48;;;;;;;2.05;1.05;;;20.70;88.60;;;;;;5029390;28;20026;-75
2022/08/30 09:23:21;;;;;;;3.65;1.40;;;20.80;88.60;;;;;;5029082;28;20100;-75
2022/08/30 09:25:51;;;;;;;;;;;20.90;85.60;;;;;;5030027;28;20017;-75
2022/08/30 09:28:28;;;;;;;4.60;1.83;;;20.90;86.60;;;;;;5028840;28;20362;-75
2022/08/30 09:31:02;;;;;;;2.55;1.25;;;21.00;86.10;;;;;;5029426;28;20018;-74
2022/08/30 09:33:28;;;;;;;1.65;1.00;;;21.00;87.90;;;;;;5028229;28;20390;-75
2022/08/30 09:35:54;;;;;;;1.13;0.70;;;21.00;86.70;;;;;;5030767;28;20026;-74
2022/08/30 09:38:34;;;;;;;7.10;1.10;;;22.30;86.40;;;;;;5032688;28;20032;-75
2022/08/30 09:41:21;;;;;;;2.83;1.00;;;21.20;84.30;;;;;;5021625;28;20018;-74
2022/08/30 09:44:04;;;;;;;1.95;0.80;;;21.20;85.50;;;;;;5032925;28;20127;-74
2022/08/30 09:46:30;;;;;;;3.65;0.80;;;21.20;85.60;;;;;;5032719;28;20080;-75
2022/08/30 09:48:55;;;;;;;2.38;0.70;;;21.20;84.00;;;;;;5032433;28;20045;-74
2022/08/30 09:51:39;;;;;;;2.92;1.30;;;21.20;84.00;;;;;;5032929;28;20116;-74
2022/08/30 09:54:17;;;;;;;2.95;1.08;;;21.20;84.10;;;;;;5033178;28;20116;-74
2022/08/30 09:57:10;;;;;;;1.13;0.70;;;21.30;82.40;;;;;;5031293;28;20049;-74
2022/08/30 09:59:44;;;;;;;3.22;1.20;;;21.40;82.90;;;;;;5019506;28;20021;-75
2022/08/30 10:02:28;;;;;;;5.60;1.05;;;21.50;82.50;;;;;;5032193;28;20017;-74
2022/08/30 10:05:31;;;;;;;2.10;1.00;;;21.50;83.00;;;;;;5021317;28;20318;-74
2022/08/30 10:08:29;;;;;;;1.52;0.93;;;21.60;84.60;;;;;;4990612;28;20038;-73
2022/08/30 10:11:05;;;;;;;2.25;0.90;;;21.60;83.00;;;;;;4990898;28;20054;-74
2022/08/30 10:13:41;;;;;;;2.05;0.80;;;21.90;82.70;;;;;;4990178;28;20030;-75
2022/08/30 10:16:15;;;;;;;2.03;0.90;;;21.90;81.10;;;;;;4989742;28;20025;-75
2022/08/30 10:19:01;;;;;;;1.17;0.77;;;21.90;82.30;;;;;;4990441;28;20042;-74
2022/08/30 10:22:03;;;;;;;1.92;0.77;;;21.90;82.40;;;;;;4989927;28;20022;-75
2022/08/30 10:24:52;;;;;;;2.78;0.70;;;22.00;80.60;;;;;;4931539;29;20433;-75
2022/08/30 10:27:27;;;;;;;3.65;0.88;;;22.20;81.90;;;;;;4931860;29;20556;-74
2022/08/30 10:30:01;;;;;;;1.77;0.65;;;22.00;81.80;;;;;;4932142;29;20047;-75
2022/08/30 10:32:36;;;;;;;2.15;0.80;;;22.00;81.30;;;;;;4931391;29;20354;-75
2022/08/30 10:35:09;;;;;;;2.00;0.70;;;22.10;79.50;;;;;;4932415;29;20035;-74
2022/08/30 10:37:38;;;;;;;;;;;22.10;79.20;;;;;;4932480;29;20043;-75
2022/08/30 10:43:08;;;;;;;3.03;0.90;;;22.00;80.30;;;;;;4951132;28;20100;-74
2022/08/30 10:45:40;;;;;;;1.27;0.93;;;22.10;79.80;;;;;;4988951;28;20038;-75
2022/08/30 10:48:19;;;;;;;4.70;1.08;;;22.10;79.20;;;;;;4989000;28;20050;-75
2022/08/30 10:50:52;;;;;;;3.83;1.10;;;22.10;77.80;;;;;;4989847;28;20106;-75
2022/08/30 10:53:22;;;;;;;1.95;0.63;;;22.10;79.30;;;;;;4989576;28;20224;-75
2022/08/30 10:55:52;;;;;;;4.80;1.42;;;22.20;77.40;;;;;;4989715;28;20487;-75
2022/08/30 10:58:18;;;;;;;2.72;0.85;;;22.20;79.20;;;;;;4989388;28;20027;-74
2022/08/30 11:01:11;;;;;;;2.65;0.90;;;22.20;78.60;;;;;;5009183;28;20095;-75
2022/08/30 11:04:01;;;;;;;1.40;0.80;;;22.40;77.50;;;;;;5031313;28;20018;-75
2022/08/30 11:06:33;;;;;;;1.90;0.95;;;22.30;77.00;;;;;;5018646;28;20029;-75
2022/08/30 11:09:21;;;;;;;2.78;1.35;;;23.00;78.70;;;;;;5031379;28;20399;-75
2022/08/30 11:12:17;;;;;;;5.68;1.23;;;22.40;76.10;;;;;;5031137;28;20025;-75
2022/08/30 11:14:44;;;;;;;2.47;0.95;;;22.40;75.40;;;;;;5030477;28;20014;-75
2022/08/30 11:17:24;;;;;;;2.22;0.90;;;22.30;76.80;;;;;;5031011;28;20029;-75
2022/08/30 11:19:53;;;;;;;4.15;1.27;;;22.20;77.10;;;;;;5030894;28;20041;-74
2022/08/30 11:22:34;;;;;;;3.50;0.95;;;22.30;76.30;;;;;;5030515;28;20029;-74
2022/08/30 11:25:32;;;;;;;3.22;0.77;;;22.40;77.00;;;;;;5030821;28;20061;-75
2022/08/30 11:27:57;;;;;;;2.50;1.02;;;22.40;74.50;;;;;;5031079;28;20041;-75
2022/08/30 11:30:23;;;;;;;1.92;0.90;;;22.40;76.10;;;;;;5030159;28;20029;-75
2022/08/30 11:33:23;;;;;;;1.45;0.80;;;21.40;75.30;;;;;;5030981;28;20026;-73
2022/08/30 11:35:54;;;;;;;2.78;1.15;;;22.40;75.00;;;;;;5033055;28;20024;-74
2022/08/30 11:38:25;;;;;;;2.15;1.02;;;22.40;75.90;;;;;;5030320;28;20025;-75
2022/08/30 11:41:05;;;;;;;2.03;0.90;;;22.60;76.00;;;;;;5017006;28;20021;-74
2022/08/30 11:43:34;;;;;;;3.50;0.98;;;22.60;76.20;;;;;;5028403;28;20075;-75
2022/08/30 11:46:18;;;;;;;2.17;0.70;;;22.60;76.40;;;;;;5030735;28;20406;-75
2022/08/30 11:48:50;;;;;;;2.42;0.93;;;22.60;76.30;;;;;;5030180;28;20775;-75
2022/08/30 11:51:49;;;;;;;4.60;0.95;;;22.70;75.70;;;;;;5030253;28;20498;-75
2022/08/30 11:54:49;;;;;;;1.48;0.70;;;22.70;74.50;;;;;;5029752;28;20071;-75
2022/08/30 11:57:24;;;;;;;2.60;1.10;;;22.80;74.70;;;;;;5030187;28;20029;-74
2022/08/30 12:00:09;;;;;;;2.28;1.02;;;22.80;74.60;;;;;;5029536;28;20036;-75
2022/08/30 12:02:40;;;;;;;3.15;0.85;;;22.90;74.50;;;;;;5030054;28;20080;-75
2022/08/30 12:05:06;;;;;;;6.80;1.00;;;22.90;73.90;;;;;;5030530;28;20033;-75
2022/08/30 12:07:58;;;;;;;3.03;0.85;;;23.00;74.50;;;;;;5029700;28;20037;-74
2022/08/30 12:10:45;;;;;;;4.93;1.13;;;22.90;74.00;;;;;;5029925;28;20021;-74
2022/08/30 12:13:43;;;;;;;1.88;0.82;;;23.60;75.60;;;;;;5030143;28;20036;-75
2022/08/30 12:16:18;;;;;;;3.33;0.65;;;23.00;73.50;;;;;;5030036;28;20069;-75
2022/08/30 12:18:51;;;;;;;2.22;0.60;;;23.10;72.00;;;;;;5030064;28;20026;-75
2022/08/30 12:21:19;;;;;;;3.28;0.80;;;23.20;71.80;;;;;;5028153;28;20026;-75
2022/08/30 12:23:48;;;;;;;4.90;0.85;;;23.10;71.20;;;;;;5030045;28;20072;-74
2022/08/30 12:26:25;;;;;;;6.80;0.85;;;23.20;70.90;;;;;;5030433;28;20036;-74
2022/08/30 12:29:26;;;;;;;2.85;0.85;;;23.20;71.50;;;;;;5029932;28;20443;-74
2022/08/30 12:31:54;;;;;;;0.73;0.50;;;23.30;72.00;;;;;;5029870;28;20034;-74
2022/08/30 12:34:34;;;;;;;2.25;0.77;;;23.30;73.30;;;;;;5029732;28;20405;-75
2022/08/30 12:37:02;;;;;;;3.28;1.20;;;23.30;71.80;;;;;;5029628;28;20033;-75
2022/08/30 12:39:31;;;;;;;3.35;0.93;;;23.40;73.10;;;;;;5029523;28;20467;-75
2022/08/30 12:42:12;;;;;;;1.95;0.75;;;23.40;73.10;;;;;;5028723;28;20033;-75
2022/08/30 12:44:39;;;;;;;2.17;1.02;;;23.30;72.50;;;;;;5029730;28;20028;-75
2022/08/30 12:47:07;;;;;;;3.55;1.10;;;23.20;72.00;;;;;;5029640;28;20029;-74
2022/08/30 12:49:35;;;;;;;2.60;0.90;;;23.20;72.20;;;;;;5028845;28;20452;-75
2022/08/30 12:52:20;;;;;;;1.60;0.80;;;23.30;72.30;;;;;;5029635;28;20021;-75
2022/08/30 12:54:46;;;;;;;1.95;0.82;;;23.40;72.40;;;;;;5029395;28;20024;-74
2022/08/30 12:57:12;;;;;;;3.05;1.00;;;23.40;70.80;;;;;;5027143;28;20025;-75
2022/08/30 12:59:46;;;;;;;3.45;1.05;;;23.50;70.60;;;;;;5029510;28;20433;-74
2022/08/30 13:02:22;;;;;;;2.15;0.98;;;23.50;71.30;;;;;;5028807;28;20033;-74
2022/08/30 13:04:50;;;;;;;2.38;0.60;;;23.40;69.60;;;;;;5028677;28;20022;-75